Time;durP1;ratioP1;P1;durP2;ratioP2;P2;SDS_P1;SDS_P2;PMS_P1;PMS_P2;Temp;Humidity;BMP_temperature;BMP_pressure;BME280_temperature;BME280_humidity;BME280_pressure;Samples;Min_cycle;Max_cycle;Signal;HPM_P1;HPM_P2
2024/01/04 00:00:25;;;;;;;0.60;0.30;;;21.40;42.00;;;;;;5003957;28;20022;-59
2024/01/04 00:02:54;;;;;;;1.40;0.52;;;21.40;42.00;;;;;;4997944;28;20031;-60
2024/01/04 00:05:20;;;;;;;1.45;0.40;;;21.40;42.00;;;;;;4994634;28;20428;-60
2024/01/04 00:07:45;;;;;;;0.47;0.30;;;21.40;42.00;;;;;;5001240;28;20108;-60
2024/01/04 00:10:13;;;;;;;0.70;0.40;;;21.40;42.00;;;;;;5003554;28;20018;-60
2024/01/04 00:12:39;;;;;;;1.10;0.30;;;21.40;42.00;;;;;;5004634;28;20512;-60
2024/01/04 00:15:06;;;;;;;2.50;0.45;;;21.40;42.00;;;;;;5003378;28;20038;-61
2024/01/04 00:17:32;;;;;;;1.17;0.40;;;21.40;42.00;;;;;;5006734;28;20109;-60
2024/01/04 00:19:58;;;;;;;1.42;0.50;;;21.30;42.00;;;;;;5005455;28;20405;-60
2024/01/04 00:22:24;;;;;;;0.60;0.30;;;21.40;42.10;;;;;;5004969;28;20057;-60
2024/01/04 00:24:50;;;;;;;0.70;0.40;;;21.30;42.10;;;;;;5005311;28;20044;-60
2024/01/04 00:27:15;;;;;;;0.98;0.40;;;21.30;42.00;;;;;;5008527;28;20038;-60
2024/01/04 00:29:44;;;;;;;0.98;0.40;;;21.30;42.10;;;;;;5007422;28;20021;-60
2024/01/04 00:32:10;;;;;;;0.60;0.40;;;21.40;42.10;;;;;;5001906;28;20058;-61
2024/01/04 00:34:36;;;;;;;0.82;0.32;;;21.30;42.10;;;;;;5006769;28;20150;-61
2024/01/04 00:37:04;;;;;;;0.50;0.30;;;21.30;42.10;;;;;;4997724;28;20034;-60
2024/01/04 00:39:31;;;;;;;0.90;0.30;;;21.30;42.10;;;;;;5006774;28;20100;-60
2024/01/04 00:41:58;;;;;;;0.90;0.20;;;21.30;42.10;;;;;;5001420;28;20054;-60
2024/01/04 00:44:24;;;;;;;0.57;0.35;;;21.30;42.10;;;;;;5006756;28;20030;-60
2024/01/04 00:46:50;;;;;;;1.13;0.32;;;21.30;42.10;;;;;;5003642;28;20088;-59
2024/01/04 00:49:16;;;;;;;0.55;0.30;;;21.30;42.10;;;;;;5002542;28;20037;-60
2024/01/04 00:51:42;;;;;;;1.00;0.40;;;21.30;42.10;;;;;;5000450;28;20034;-61
2024/01/04 00:54:08;;;;;;;1.58;0.50;;;21.30;42.20;;;;;;5002395;28;20326;-60
2024/01/04 00:56:34;;;;;;;1.75;0.43;;;21.20;42.10;;;;;;5004425;28;20037;-61
2024/01/04 00:59:00;;;;;;;0.55;0.32;;;21.30;42.20;;;;;;5007466;28;20326;-60
2024/01/04 01:01:26;;;;;;;1.08;0.30;;;21.20;42.10;;;;;;5001136;28;20022;-61
2024/01/04 01:03:53;;;;;;;1.00;0.40;;;21.20;42.10;;;;;;5003687;28;20113;-60
2024/01/04 01:06:19;;;;;;;0.60;0.22;;;21.30;42.20;;;;;;5002957;28;20026;-60
2024/01/04 01:08:45;;;;;;;0.80;0.30;;;21.20;42.10;;;;;;5004769;28;20030;-60
2024/01/04 01:11:10;;;;;;;0.55;0.30;;;21.20;42.10;;;;;;5001500;28;20045;-60
2024/01/04 01:13:37;;;;;;;0.60;0.30;;;21.20;42.20;;;;;;5004867;28;20334;-60
2024/01/04 01:16:03;;;;;;;0.93;0.30;;;21.20;42.20;;;;;;5004792;28;20026;-60
2024/01/04 01:18:30;;;;;;;0.30;0.28;;;21.20;42.20;;;;;;5003782;28;20060;-60
2024/01/04 01:20:55;;;;;;;0.65;0.40;;;21.20;42.20;;;;;;5002020;28;20022;-60
2024/01/04 01:23:21;;;;;;;1.23;0.38;;;21.20;42.20;;;;;;5002847;28;20154;-60
2024/01/04 01:25:47;;;;;;;1.30;0.35;;;21.20;42.20;;;;;;5001923;28;20030;-60
2024/01/04 01:28:13;;;;;;;0.43;0.20;;;21.20;42.20;;;;;;5000435;28;20077;-60
2024/01/04 01:30:39;;;;;;;1.00;0.25;;;21.20;42.20;;;;;;5003339;28;20034;-60
2024/01/04 01:33:05;;;;;;;1.00;0.30;;;21.20;42.20;;;;;;4998396;28;20369;-61
2024/01/04 01:35:32;;;;;;;0.57;0.20;;;21.10;42.20;;;;;;5003231;28;20058;-61
2024/01/04 01:37:58;;;;;;;0.90;0.40;;;21.10;42.20;;;;;;4998961;28;20547;-60
2024/01/04 01:40:24;;;;;;;1.85;0.32;;;21.10;42.20;;;;;;5000927;28;20132;-60
2024/01/04 01:42:50;;;;;;;1.13;0.30;;;21.10;42.20;;;;;;5001952;28;20026;-60
2024/01/04 01:45:20;;;;;;;0.98;0.20;;;21.10;42.20;;;;;;5006509;28;20032;-60
2024/01/04 01:47:47;;;;;;;1.25;0.35;;;21.10;42.20;;;;;;5002622;28;20030;-60
2024/01/04 01:50:15;;;;;;;0.40;0.30;;;21.10;42.20;;;;;;5005358;28;20560;-59
2024/01/04 01:52:41;;;;;;;0.52;0.32;;;21.10;42.20;;;;;;5002806;28;20045;-60
2024/01/04 01:55:09;;;;;;;0.55;0.30;;;21.10;42.20;;;;;;5000111;28;20400;-60
2024/01/04 01:57:36;;;;;;;0.77;0.30;;;21.10;42.20;;;;;;5003237;28;20065;-60
2024/01/04 02:00:02;;;;;;;0.50;0.20;;;21.10;42.20;;;;;;5002176;28;20045;-60
2024/01/04 02:02:38;;;;;;;0.73;0.30;;;21.10;42.20;;;;;;4995017;28;20038;-60
2024/01/04 02:05:04;;;;;;;0.40;0.20;;;21.10;42.20;;;;;;5002180;28;20052;-60
2024/01/04 02:07:30;;;;;;;1.75;0.30;;;21.10;42.20;;;;;;5001390;28;20642;-60
2024/01/04 02:09:59;;;;;;;0.63;0.30;;;21.10;42.30;;;;;;5006674;28;20041;-60
2024/01/04 02:12:25;;;;;;;0.68;0.30;;;21.10;42.20;;;;;;4996544;28;20440;-60
2024/01/04 02:14:54;;;;;;;0.40;0.30;;;21.10;42.20;;;;;;4998278;28;20041;-60
2024/01/04 02:17:24;;;;;;;0.82;0.30;;;21.10;42.20;;;;;;5002354;28;20113;-59
2024/01/04 02:19:51;;;;;;;0.82;0.30;;;21.00;42.20;;;;;;4998261;28;20420;-60
2024/01/04 02:22:17;;;;;;;0.68;0.20;;;21.10;42.30;;;;;;5001353;28;20446;-60
2024/01/04 02:24:43;;;;;;;0.82;0.30;;;21.00;42.20;;;;;;5002642;28;20037;-60
2024/01/04 02:27:11;;;;;;;0.38;0.30;;;21.10;42.30;;;;;;4996972;28;20040;-60
2024/01/04 02:29:37;;;;;;;0.38;0.20;;;21.10;42.30;;;;;;5005331;28;20029;-60
2024/01/04 02:32:03;;;;;;;1.17;0.43;;;21.00;42.20;;;;;;5001101;28;20031;-60
2024/01/04 02:34:30;;;;;;;1.05;0.22;;;21.00;42.20;;;;;;5004669;28;20080;-60
2024/01/04 02:36:56;;;;;;;1.63;0.47;;;21.00;42.20;;;;;;4999399;28;20041;-60
2024/01/04 02:39:22;;;;;;;1.05;0.35;;;21.00;42.30;;;;;;5000339;28;20022;-60
2024/01/04 02:41:48;;;;;;;0.80;0.40;;;21.00;42.30;;;;;;4999989;28;20361;-60
2024/01/04 02:44:13;;;;;;;0.65;0.38;;;21.00;42.30;;;;;;4999041;28;20061;-60
2024/01/04 02:46:39;;;;;;;0.80;0.30;;;21.00;42.30;;;;;;5004395;28;20031;-60
2024/01/04 02:49:05;;;;;;;1.17;0.55;;;21.00;42.30;;;;;;5005655;28;20461;-60
2024/01/04 02:51:31;;;;;;;0.25;0.20;;;21.00;42.30;;;;;;5003632;28;20034;-60
2024/01/04 02:53:57;;;;;;;1.40;0.30;;;21.00;42.90;;;;;;5002897;28;20049;-60
2024/01/04 02:56:22;;;;;;;0.93;0.25;;;21.00;42.30;;;;;;5003425;28;20030;-60
2024/01/04 02:58:48;;;;;;;1.13;0.50;;;21.00;42.20;;;;;;5001095;28;20030;-60
2024/01/04 03:01:20;;;;;;;1.30;0.38;;;21.00;42.20;;;;;;4999234;28;20029;-60
2024/01/04 03:03:48;;;;;;;0.95;0.40;;;21.00;42.30;;;;;;5001621;28;20030;-60
2024/01/04 03:06:14;;;;;;;1.30;0.40;;;21.00;42.20;;;;;;5001938;28;20048;-60
2024/01/04 03:08:40;;;;;;;1.13;0.38;;;21.00;42.20;;;;;;4999989;28;20026;-59
2024/01/04 03:11:06;;;;;;;0.93;0.50;;;21.00;42.20;;;;;;4999163;28;20046;-60
2024/01/04 03:13:32;;;;;;;1.05;0.40;;;20.90;42.20;;;;;;5000469;28;20033;-60
2024/01/04 03:15:57;;;;;;;0.70;0.22;;;20.90;42.20;;;;;;5011668;28;20041;-60
2024/01/04 03:18:23;;;;;;;0.90;0.40;;;20.90;42.20;;;;;;5003904;28;20025;-60
2024/01/04 03:20:49;;;;;;;0.70;0.28;;;20.90;42.20;;;;;;5010149;28;20478;-60
2024/01/04 03:23:15;;;;;;;1.67;0.40;;;20.90;42.20;;;;;;5008636;28;20409;-61
2024/01/04 03:25:40;;;;;;;0.82;0.40;;;20.90;42.20;;;;;;5007812;28;20026;-60
2024/01/04 03:28:06;;;;;;;0.55;0.20;;;20.90;42.20;;;;;;5009724;28;20036;-60
2024/01/04 03:30:32;;;;;;;1.38;0.30;;;20.90;42.20;;;;;;5010778;28;20043;-60
2024/01/04 03:32:58;;;;;;;1.00;0.43;;;20.90;42.20;;;;;;5004805;28;20132;-61
2024/01/04 03:35:23;;;;;;;1.08;0.45;;;20.90;42.20;;;;;;5001030;28;20026;-60
2024/01/04 03:37:49;;;;;;;0.50;0.30;;;20.90;42.20;;;;;;5006287;28;20429;-60
2024/01/04 03:40:15;;;;;;;1.02;0.40;;;20.90;42.20;;;;;;5000953;28;20026;-60
2024/01/04 03:42:41;;;;;;;1.23;0.38;;;20.90;42.20;;;;;;4997566;28;20349;-61
2024/01/04 03:45:07;;;;;;;0.85;0.40;;;20.90;42.20;;;;;;5004779;28;20365;-61
2024/01/04 03:47:33;;;;;;;1.42;0.43;;;20.90;42.20;;;;;;5007307;28;20026;-61
2024/01/04 03:49:59;;;;;;;1.40;0.40;;;20.90;42.20;;;;;;5004948;28;20030;-61
2024/01/04 03:52:25;;;;;;;1.38;0.32;;;20.90;42.20;;;;;;5001031;28;20128;-61
2024/01/04 03:54:50;;;;;;;0.73;0.20;;;20.90;42.20;;;;;;5001906;28;20189;-61
2024/01/04 03:57:16;;;;;;;0.75;0.30;;;20.80;42.20;;;;;;5005368;28;20487;-61
2024/01/04 03:59:42;;;;;;;0.82;0.30;;;20.80;42.20;;;;;;5004000;28;20025;-61
2024/01/04 04:02:08;;;;;;;1.10;0.40;;;20.80;42.20;;;;;;5005888;28;20038;-60
2024/01/04 04:04:33;;;;;;;1.35;0.40;;;20.90;42.20;;;;;;5005250;28;20124;-61
2024/01/04 04:06:59;;;;;;;2.45;0.47;;;20.90;42.20;;;;;;5002719;28;20022;-61
2024/01/04 04:09:25;;;;;;;1.30;0.47;;;20.80;42.20;;;;;;5003777;28;20506;-60
2024/01/04 04:11:51;;;;;;;0.60;0.30;;;20.80;42.20;;;;;;5004628;28;20047;-60
2024/01/04 04:14:17;;;;;;;0.80;0.30;;;20.80;42.20;;;;;;5006568;28;20048;-60
2024/01/04 04:16:43;;;;;;;0.52;0.20;;;20.80;42.10;;;;;;5006531;28;20081;-60
2024/01/04 04:19:09;;;;;;;1.20;0.50;;;20.80;42.10;;;;;;4998476;28;20032;-60
2024/01/04 04:21:35;;;;;;;0.50;0.20;;;20.80;42.10;;;;;;5004215;28;20410;-60
2024/01/04 04:24:00;;;;;;;0.90;0.20;;;20.80;42.20;;;;;;5005114;28;20025;-60
2024/01/04 04:26:26;;;;;;;0.80;0.20;;;20.80;42.20;;;;;;5010416;28;20104;-60
2024/01/04 04:28:52;;;;;;;0.60;0.20;;;20.80;42.20;;;;;;5005454;28;20495;-60
2024/01/04 04:31:19;;;;;;;0.73;0.30;;;20.80;42.20;;;;;;5004082;28;20105;-61
2024/01/04 04:33:46;;;;;;;0.45;0.20;;;20.80;42.20;;;;;;5006728;28;20066;-61
2024/01/04 04:36:12;;;;;;;0.90;0.20;;;20.80;42.20;;;;;;5005196;28;20038;-61
2024/01/04 04:38:38;;;;;;;1.20;0.30;;;20.80;42.20;;;;;;5000417;28;20034;-61
2024/01/04 04:41:05;;;;;;;1.50;0.50;;;20.80;42.20;;;;;;5006402;28;20030;-60
2024/01/04 04:43:32;;;;;;;0.88;0.30;;;20.80;42.20;;;;;;5008746;28;20029;-61
2024/01/04 04:45:58;;;;;;;1.10;0.30;;;20.80;42.20;;;;;;5005577;28;20439;-61
2024/01/04 04:48:25;;;;;;;0.43;0.20;;;20.80;42.20;;;;;;5001592;28;20045;-61
2024/01/04 04:50:52;;;;;;;0.60;0.30;;;20.80;42.20;;;;;;5003126;28;20072;-61
2024/01/04 04:53:18;;;;;;;0.73;0.35;;;20.70;42.20;;;;;;5005026;28;20095;-61
2024/01/04 04:55:44;;;;;;;1.30;0.30;;;20.70;42.20;;;;;;5008975;28;20018;-61
2024/01/04 04:58:10;;;;;;;0.77;0.38;;;20.70;42.20;;;;;;5002467;28;20033;-61
2024/01/04 05:00:36;;;;;;;1.10;0.35;;;20.70;42.20;;;;;;4998918;28;20019;-60
2024/01/04 05:03:02;;;;;;;1.85;0.57;;;20.70;42.30;;;;;;5006278;28;20549;-60
2024/01/04 05:05:29;;;;;;;0.40;0.30;;;20.70;42.30;;;;;;5004863;28;20052;-61
2024/01/04 05:07:55;;;;;;;1.80;0.63;;;20.70;42.30;;;;;;5004023;28;20030;-61
2024/01/04 05:10:22;;;;;;;1.00;0.30;;;20.70;42.30;;;;;;4998593;28;20128;-60
2024/01/04 05:12:48;;;;;;;0.75;0.40;;;20.70;42.30;;;;;;5005098;28;20041;-60
2024/01/04 05:15:14;;;;;;;0.80;0.22;;;20.70;42.30;;;;;;5000007;28;20359;-61
2024/01/04 05:17:40;;;;;;;0.70;0.30;;;20.70;42.30;;;;;;5002883;28;20018;-61
2024/01/04 05:20:06;;;;;;;0.35;0.20;;;20.70;42.30;;;;;;5003344;28;20045;-61
2024/01/04 05:22:32;;;;;;;0.63;0.40;;;20.70;42.30;;;;;;5012827;28;20034;-61
2024/01/04 05:24:58;;;;;;;1.08;0.30;;;20.70;42.30;;;;;;5007464;28;20030;-62
2024/01/04 05:27:23;;;;;;;0.32;0.20;;;20.70;42.30;;;;;;5001388;28;20037;-60
2024/01/04 05:29:49;;;;;;;0.70;0.30;;;20.70;42.30;;;;;;5000977;28;20031;-60
2024/01/04 05:32:15;;;;;;;0.63;0.28;;;20.70;42.30;;;;;;5005619;28;21141;-60
2024/01/04 05:34:44;;;;;;;0.25;0.13;;;20.70;42.40;;;;;;5003640;28;20126;-60
2024/01/04 05:37:10;;;;;;;0.75;0.20;;;20.70;42.40;;;;;;5001089;28;20128;-61
2024/01/04 05:39:35;;;;;;;0.47;0.22;;;20.70;42.40;;;;;;4999044;28;20034;-60
2024/01/04 05:42:01;;;;;;;0.55;0.20;;;20.60;42.30;;;;;;5000241;28;20349;-60
2024/01/04 05:44:27;;;;;;;0.03;0.03;;;20.60;42.30;;;;;;5005928;28;20026;-60
2024/01/04 05:46:53;;;;;;;0.35;0.15;;;20.60;42.30;;;;;;5005259;28;20044;-60
2024/01/04 05:49:19;;;;;;;1.05;0.35;;;20.60;42.30;;;;;;5000573;28;20030;-60
2024/01/04 05:51:44;;;;;;;0.65;0.20;;;20.70;42.40;;;;;;5004217;28;20022;-61
2024/01/04 05:54:10;;;;;;;0.60;0.20;;;20.60;42.30;;;;;;5000744;28;20076;-60
2024/01/04 05:56:36;;;;;;;0.55;0.10;;;20.60;42.30;;;;;;5002232;28;20029;-61
2024/01/04 05:59:02;;;;;;;0.93;0.25;;;20.60;42.30;;;;;;5005061;28;20023;-61
2024/01/04 06:01:28;;;;;;;0.93;0.30;;;20.60;42.30;;;;;;5005591;28;20037;-61
2024/01/04 06:03:54;;;;;;;0.80;0.22;;;20.60;42.30;;;;;;5007628;28;20022;-60
2024/01/04 06:06:20;;;;;;;0.50;0.20;;;20.60;42.40;;;;;;5002400;28;20027;-59
2024/01/04 06:08:46;;;;;;;0.93;0.30;;;20.60;42.40;;;;;;5000354;28;20069;-60
2024/01/04 06:11:12;;;;;;;0.40;0.10;;;20.60;42.40;;;;;;5003344;28;20054;-60
2024/01/04 06:13:37;;;;;;;1.00;0.20;;;20.60;42.40;;;;;;5003116;28;20048;-60
2024/01/04 06:16:07;;;;;;;1.10;0.30;;;20.60;42.40;;;;;;5005258;28;20105;-61
2024/01/04 06:18:36;;;;;;;0.60;0.13;;;20.60;42.40;;;;;;4998943;28;20168;-60
2024/01/04 06:21:05;;;;;;;0.68;0.28;;;20.60;42.40;;;;;;4997653;28;20405;-59
2024/01/04 06:23:31;;;;;;;0.20;0.15;;;20.60;42.40;;;;;;5002953;28;20041;-60
2024/01/04 06:25:57;;;;;;;0.50;0.20;;;20.60;42.40;;;;;;5000314;28;20034;-60
2024/01/04 06:28:23;;;;;;;0.25;0.10;;;20.60;42.40;;;;;;4999855;28;20338;-60
2024/01/04 06:30:49;;;;;;;0.20;0.10;;;20.60;42.40;;;;;;5003588;28;20529;-60
2024/01/04 06:33:17;;;;;;;0.32;0.22;;;20.60;42.40;;;;;;5008455;28;20120;-60
2024/01/04 06:35:43;;;;;;;0.30;0.22;;;20.60;42.40;;;;;;5001217;28;20025;-60
2024/01/04 06:38:10;;;;;;;0.22;0.22;;;20.60;42.50;;;;;;4999934;28;20026;-61
2024/01/04 06:40:36;;;;;;;0.63;0.20;;;20.60;42.40;;;;;;5002323;28;20026;-62
2024/01/04 06:43:03;;;;;;;0.22;0.10;;;20.60;42.50;;;;;;5004590;28;20022;-59
2024/01/04 06:45:29;;;;;;;0.68;0.30;;;20.50;42.40;;;;;;5002803;28;20040;-63
2024/01/04 06:47:55;;;;;;;0.93;0.32;;;20.60;42.50;;;;;;4998766;28;20022;-60
2024/01/04 06:50:22;;;;;;;0.60;0.20;;;20.50;42.40;;;;;;4999007;28;20096;-62
2024/01/04 06:52:48;;;;;;;0.30;0.20;;;20.50;42.40;;;;;;5000921;28;20096;-61
2024/01/04 06:55:15;;;;;;;0.85;0.20;;;20.50;42.40;;;;;;5000245;28;20027;-60
2024/01/04 06:57:41;;;;;;;0.95;0.30;;;20.50;42.50;;;;;;4999195;28;20033;-60
2024/01/04 07:00:08;;;;;;;0.68;0.30;;;20.50;42.50;;;;;;5007544;28;20064;-61
2024/01/04 07:02:35;;;;;;;0.50;0.30;;;20.50;42.50;;;;;;5001374;28;20117;-61
2024/01/04 07:05:03;;;;;;;1.08;0.35;;;20.50;42.60;;;;;;5002178;28;20033;-61
2024/01/04 07:07:30;;;;;;;0.70;0.20;;;20.50;42.60;;;;;;5001419;28;20109;-62
2024/01/04 07:09:56;;;;;;;0.85;0.32;;;20.50;42.60;;;;;;5000680;28;20037;-61
2024/01/04 07:12:23;;;;;;;0.40;0.20;;;20.50;42.60;;;;;;5006724;28;20373;-61
2024/01/04 07:14:48;;;;;;;0.28;0.25;;;20.50;42.60;;;;;;5008017;28;20023;-61
2024/01/04 07:17:16;;;;;;;1.02;0.10;;;20.50;42.60;;;;;;4997441;28;20040;-62
2024/01/04 07:19:43;;;;;;;1.13;0.32;;;20.50;42.60;;;;;;5008442;28;20040;-61
2024/01/04 07:22:10;;;;;;;1.52;0.30;;;20.50;42.60;;;;;;5002757;28;20084;-63
2024/01/04 07:24:36;;;;;;;0.73;0.22;;;20.50;42.60;;;;;;5008085;28;20030;-61
2024/01/04 07:27:05;;;;;;;0.32;0.30;;;20.50;42.60;;;;;;4995664;28;20521;-61
2024/01/04 07:29:31;;;;;;;0.65;0.25;;;20.50;42.60;;;;;;4996111;28;20026;-61
2024/01/04 07:31:57;;;;;;;1.65;0.57;;;20.50;42.60;;;;;;5007636;28;20045;-62
2024/01/04 07:34:23;;;;;;;0.43;0.20;;;20.50;42.70;;;;;;5009700;28;20026;-61
2024/01/04 07:36:50;;;;;;;0.65;0.30;;;20.50;42.70;;;;;;5007653;28;20032;-62
2024/01/04 07:39:16;;;;;;;0.88;0.20;;;20.50;42.70;;;;;;5005158;28;20049;-62
2024/01/04 07:41:43;;;;;;;0.95;0.30;;;20.50;42.70;;;;;;5011423;28;20441;-61
2024/01/04 07:44:09;;;;;;;0.40;0.30;;;20.50;42.70;;;;;;4997479;28;20038;-61
2024/01/04 07:46:36;;;;;;;0.40;0.20;;;20.50;42.70;;;;;;5001469;28;20022;-62
2024/01/04 07:49:04;;;;;;;0.38;0.30;;;20.50;42.70;;;;;;4995041;28;20325;-60
2024/01/04 07:51:30;;;;;;;0.60;0.30;;;20.50;42.70;;;;;;5005274;28;20021;-62
2024/01/04 07:53:56;;;;;;;0.88;0.28;;;20.50;42.70;;;;;;5006076;28;20089;-59
2024/01/04 07:56:22;;;;;;;1.50;0.50;;;20.50;42.70;;;;;;4999359;28;20367;-60
2024/01/04 07:58:47;;;;;;;0.88;0.40;;;20.50;42.70;;;;;;4999425;28;20034;-60
2024/01/04 08:01:13;;;;;;;0.55;0.20;;;20.40;42.70;;;;;;4999021;28;20034;-61
2024/01/04 08:03:39;;;;;;;1.08;0.30;;;20.50;42.70;;;;;;5001443;28;20345;-60
2024/01/04 08:06:05;;;;;;;0.20;0.10;;;20.50;42.70;;;;;;5010754;28;20022;-61
2024/01/04 08:08:31;;;;;;;1.50;0.35;;;20.50;42.70;;;;;;5002076;28;20408;-60
2024/01/04 08:10:59;;;;;;;0.28;0.20;;;20.50;42.70;;;;;;5004586;28;20050;-60
2024/01/04 08:13:25;;;;;;;0.47;0.20;;;20.50;42.70;;;;;;5015802;28;20042;-60
2024/01/04 08:15:51;;;;;;;0.57;0.22;;;20.50;42.70;;;;;;5005750;28;20022;-60
2024/01/04 08:18:20;;;;;;;0.70;0.30;;;20.50;42.70;;;;;;5002887;28;20080;-61
2024/01/04 08:20:46;;;;;;;1.27;0.20;;;20.50;42.80;;;;;;5004578;28;20112;-61
2024/01/04 08:23:12;;;;;;;1.05;0.43;;;20.50;42.90;;;;;;5002201;28;20480;-61
2024/01/04 08:25:38;;;;;;;0.95;0.25;;;20.50;42.90;;;;;;4995991;28;20527;-61
2024/01/04 08:28:05;;;;;;;0.40;0.20;;;20.50;42.90;;;;;;4998467;28;20030;-61
2024/01/04 08:30:30;;;;;;;1.00;0.40;;;20.50;42.90;;;;;;4998063;28;20114;-61
2024/01/04 08:32:56;;;;;;;0.13;0.10;;;20.50;42.80;;;;;;5003493;28;20042;-61
2024/01/04 08:35:22;;;;;;;0.38;0.25;;;20.50;42.80;;;;;;5011065;28;20033;-61
2024/01/04 08:37:49;;;;;;;1.05;0.20;;;20.60;42.70;;;;;;5004489;28;20084;-61
2024/01/04 08:40:15;;;;;;;0.45;0.35;;;20.60;42.70;;;;;;5002006;28;20072;-61
2024/01/04 08:42:41;;;;;;;0.63;0.22;;;20.60;42.70;;;;;;5001069;28;20064;-62
2024/01/04 08:45:10;;;;;;;0.30;0.20;;;20.70;42.70;;;;;;5006513;28;20088;-61
2024/01/04 08:47:36;;;;;;;0.68;0.35;;;20.70;42.60;;;;;;5003961;28;20034;-61
2024/01/04 08:50:02;;;;;;;0.80;0.28;;;20.70;42.60;;;;;;5001552;28;20445;-61
2024/01/04 08:52:28;;;;;;;1.00;0.30;;;20.70;42.60;;;;;;5008971;28;20461;-62
2024/01/04 08:54:54;;;;;;;0.73;0.32;;;20.80;42.60;;;;;;5005578;28;20381;-61
2024/01/04 08:57:20;;;;;;;0.60;0.28;;;20.80;42.50;;;;;;5004833;28;20080;-60
2024/01/04 08:59:46;;;;;;;1.25;0.38;;;20.80;42.50;;;;;;5002512;28;20026;-62
2024/01/04 09:02:11;;;;;;;0.77;0.35;;;20.80;42.40;;;;;;5009002;28;20030;-61
2024/01/04 09:04:37;;;;;;;0.40;0.30;;;20.90;42.50;;;;;;5013395;28;20034;-60
2024/01/04 09:07:03;;;;;;;0.82;0.20;;;20.90;42.40;;;;;;5002886;28;20032;-62
2024/01/04 09:09:29;;;;;;;0.43;0.25;;;20.90;42.40;;;;;;5002089;28;20030;-61
2024/01/04 09:11:55;;;;;;;0.22;0.15;;;20.90;42.40;;;;;;4994586;28;20080;-62
2024/01/04 09:14:20;;;;;;;1.58;0.50;;;20.90;42.30;;;;;;4992666;28;20049;-61
2024/01/04 09:16:48;;;;;;;0.43;0.20;;;21.00;42.30;;;;;;4988524;28;20038;-62
2024/01/04 09:19:19;;;;;;;1.00;0.30;;;21.00;42.30;;;;;;4988834;28;20030;-61
2024/01/04 09:21:48;;;;;;;0.60;0.30;;;21.10;42.30;;;;;;4990848;28;20354;-63
2024/01/04 09:24:13;;;;;;;0.40;0.20;;;21.10;42.20;;;;;;5000892;28;20038;-62
2024/01/04 09:26:43;;;;;;;0.30;0.20;;;21.10;42.20;;;;;;5004671;28;20038;-62
2024/01/04 09:29:10;;;;;;;0.10;0.10;;;21.10;42.10;;;;;;5006118;28;20489;-62
2024/01/04 09:31:36;;;;;;;1.40;0.43;;;21.10;42.10;;;;;;4999701;28;20061;-61
2024/01/04 09:34:06;;;;;;;0.50;0.28;;;21.10;42.10;;;;;;5012707;28;20376;-61
2024/01/04 09:36:32;;;;;;;0.17;0.13;;;21.10;42.00;;;;;;5003389;28;20053;-62
2024/01/04 09:38:58;;;;;;;0.65;0.35;;;21.20;42.10;;;;;;5012354;28;20044;-61
2024/01/04 09:41:31;;;;;;;0.30;0.30;;;21.20;42.00;;;;;;5010134;28;20023;-62
2024/01/04 09:44:03;;;;;;;0.40;0.20;;;21.20;42.00;;;;;;5005350;28;20023;-60
2024/01/04 09:46:39;;;;;;;0.70;0.30;;;21.20;42.00;;;;;;5011439;28;20329;-62
2024/01/04 09:49:06;;;;;;;1.10;0.30;;;21.20;41.90;;;;;;4996105;28;20092;-62
2024/01/04 09:51:38;;;;;;;0.40;0.20;;;21.30;42.00;;;;;;5002145;28;20100;-61
2024/01/04 09:54:09;;;;;;;0.50;0.32;;;21.30;42.00;;;;;;4996550;28;20449;-61
2024/01/04 09:56:42;;;;;;;0.50;0.40;;;21.30;41.90;;;;;;5004701;28;20041;-61
2024/01/04 09:59:09;;;;;;;1.08;0.30;;;21.30;41.90;;;;;;4993997;28;20061;-62
2024/01/04 10:01:38;;;;;;;0.45;0.28;;;21.30;42.00;;;;;;4994880;28;20030;-61
2024/01/04 10:04:12;;;;;;;0.40;0.38;;;21.30;42.00;;;;;;5012055;28;20489;-62
2024/01/04 10:06:45;;;;;;;0.55;0.32;;;21.30;41.90;;;;;;5009433;28;20031;-62
2024/01/04 10:09:32;;;;;;;0.75;0.40;;;21.30;42.00;;;;;;4999573;28;20349;-61
2024/01/04 10:12:02;;;;;;;1.00;0.40;;;21.30;41.90;;;;;;4997061;28;20113;-62
2024/01/04 10:14:29;;;;;;;0.70;0.50;;;21.30;42.00;;;;;;5011189;28;20124;-61
2024/01/04 10:17:02;;;;;;;1.33;0.47;;;21.30;42.00;;;;;;5000682;28;20037;-61
2024/01/04 10:19:29;;;;;;;1.17;0.30;;;21.30;42.00;;;;;;4993797;28;20109;-61
2024/01/04 10:22:03;;;;;;;0.60;0.30;;;21.30;42.00;;;;;;4998332;28;20023;-62
2024/01/04 10:24:31;;;;;;;0.55;0.40;;;21.40;42.00;;;;;;5007685;28;20022;-61
2024/01/04 10:26:58;;;;;;;0.47;0.25;;;21.40;42.00;;;;;;4999767;28;20034;-62
2024/01/04 10:29:28;;;;;;;0.38;0.30;;;21.40;41.90;;;;;;5002119;28;20372;-62
2024/01/04 10:32:13;;;;;;;0.57;0.30;;;21.40;41.90;;;;;;5009089;28;20037;-61
2024/01/04 10:34:40;;;;;;;1.23;0.22;;;21.40;41.80;;;;;;5011101;28;20100;-61
2024/01/04 10:37:17;;;;;;;0.57;0.20;;;21.50;41.90;;;;;;5010827;28;20031;-61
2024/01/04 10:40:00;;;;;;;0.32;0.30;;;21.50;41.80;;;;;;4997857;28;20033;-62
2024/01/04 10:42:27;;;;;;;0.65;0.40;;;21.50;41.80;;;;;;4996234;28;20029;-61
2024/01/04 10:44:53;;;;;;;0.93;0.30;;;21.60;41.80;;;;;;5005306;28;20034;-61
2024/01/04 10:47:19;;;;;;;0.63;0.30;;;21.60;41.80;;;;;;5011468;28;20088;-60
2024/01/04 10:49:56;;;;;;;0.63;0.38;;;21.60;41.80;;;;;;5002865;28;20030;-60
2024/01/04 10:52:27;;;;;;;0.75;0.28;;;21.60;41.70;;;;;;5009345;28;20033;-60
2024/01/04 10:54:54;;;;;;;1.83;0.40;;;21.70;41.80;;;;;;4996686;28;21615;-59
2024/01/04 10:57:21;;;;;;;0.57;0.30;;;21.70;41.80;;;;;;4995833;28;20421;-60
2024/01/04 10:59:50;;;;;;;0.95;0.50;;;21.70;41.80;;;;;;4998673;28;20030;-60
2024/01/04 11:02:18;;;;;;;1.08;0.50;;;21.70;41.70;;;;;;5000405;28;20354;-60
2024/01/04 11:04:44;;;;;;;0.50;0.30;;;21.70;41.80;;;;;;5001002;28;20088;-60
2024/01/04 11:07:14;;;;;;;0.60;0.30;;;21.70;41.70;;;;;;5005825;28;20318;-60
2024/01/04 11:09:39;;;;;;;0.30;0.30;;;21.70;41.70;;;;;;4995400;28;20054;-60
2024/01/04 11:12:06;;;;;;;0.47;0.20;;;21.70;41.70;;;;;;5002909;28;20045;-61
2024/01/04 11:14:32;;;;;;;1.27;0.40;;;21.80;41.70;;;;;;5008569;28;20080;-60
2024/01/04 11:17:09;;;;;;;1.35;0.40;;;21.80;41.70;;;;;;5004564;28;20033;-60
2024/01/04 11:20:02;;;;;;;0.93;0.40;;;21.80;41.70;;;;;;5002222;28;20034;-60
2024/01/04 11:22:46;;;;;;;1.63;0.47;;;21.80;41.60;;;;;;4994821;28;20030;-60
2024/01/04 11:25:30;;;;;;;0.90;0.50;;;21.80;41.70;;;;;;4993597;28;20353;-61
2024/01/04 11:27:57;;;;;;;0.98;0.40;;;21.80;41.70;;;;;;5005236;28;20036;-61
2024/01/04 11:30:23;;;;;;;0.40;0.30;;;21.80;41.70;;;;;;5004445;28;20403;-61
2024/01/04 11:32:49;;;;;;;0.60;0.40;;;21.80;41.70;;;;;;5000827;28;20120;-60
2024/01/04 11:35:16;;;;;;;0.88;0.40;;;21.80;41.70;;;;;;5000018;28;20061;-60
2024/01/04 11:37:51;;;;;;;0.45;0.30;;;21.80;41.70;;;;;;4997855;28;20052;-60
2024/01/04 11:40:26;;;;;;;0.77;0.20;;;21.80;41.70;;;;;;4999988;28;20504;-61
2024/01/04 11:42:51;;;;;;;0.70;0.30;;;21.80;41.70;;;;;;4999330;28;20121;-60
2024/01/04 11:45:18;;;;;;;0.73;0.32;;;21.80;41.70;;;;;;4997761;28;20153;-61
2024/01/04 11:47:46;;;;;;;0.90;0.20;;;21.80;41.80;;;;;;4996883;28;20085;-61
2024/01/04 11:50:15;;;;;;;0.55;0.47;;;21.70;41.70;;;;;;5002405;28;20041;-61
2024/01/04 11:52:41;;;;;;;0.68;0.30;;;21.70;41.80;;;;;;5008245;28;20041;-61
2024/01/04 11:55:08;;;;;;;0.32;0.30;;;21.80;41.90;;;;;;5000367;28;20505;-61
2024/01/04 11:57:34;;;;;;;0.35;0.22;;;21.70;41.80;;;;;;4999878;28;20038;-61
2024/01/04 12:00:12;;;;;;;0.30;0.20;;;21.70;41.80;;;;;;4997725;28;20030;-61
2024/01/04 12:02:38;;;;;;;0.47;0.25;;;21.70;41.80;;;;;;4998445;28;20141;-60
2024/01/04 12:05:05;;;;;;;0.65;0.47;;;21.70;41.90;;;;;;4997444;28;20035;-61
2024/01/04 12:07:35;;;;;;;0.30;0.20;;;21.70;41.90;;;;;;4997082;28;20033;-61
2024/01/04 12:10:01;;;;;;;0.60;0.30;;;21.70;41.90;;;;;;5002439;28;20437;-61
2024/01/04 12:12:26;;;;;;;0.82;0.30;;;21.70;41.90;;;;;;5001579;28;20054;-60
2024/01/04 12:14:52;;;;;;;0.30;0.20;;;21.70;42.00;;;;;;5005356;28;20099;-61
2024/01/04 12:17:19;;;;;;;0.95;0.43;;;21.70;42.00;;;;;;5002882;28;20037;-61
2024/01/04 12:19:44;;;;;;;0.40;0.28;;;21.70;42.00;;;;;;4996651;28;20026;-61
2024/01/04 12:22:10;;;;;;;0.30;0.30;;;21.70;42.00;;;;;;4998234;28;20189;-60
2024/01/04 12:24:38;;;;;;;0.95;0.32;;;21.70;42.10;;;;;;5003457;28;20096;-60
2024/01/04 12:27:05;;;;;;;0.80;0.40;;;21.70;42.10;;;;;;5005975;28;20437;-61
2024/01/04 12:29:31;;;;;;;1.25;0.47;;;21.70;42.10;;;;;;5003820;28;20045;-60
2024/01/04 12:31:57;;;;;;;1.35;0.45;;;21.70;42.20;;;;;;5015430;28;20030;-61
2024/01/04 12:34:23;;;;;;;0.70;0.30;;;21.70;42.20;;;;;;5011859;28;20039;-61
2024/01/04 12:36:49;;;;;;;0.40;0.20;;;21.70;42.20;;;;;;4997238;28;20030;-61
2024/01/04 12:39:14;;;;;;;1.35;0.52;;;21.70;42.30;;;;;;5007180;28;20030;-61
2024/01/04 12:41:44;;;;;;;0.88;0.60;;;21.70;42.30;;;;;;5002903;28;20030;-62
2024/01/04 12:44:11;;;;;;;0.65;0.40;;;21.60;42.20;;;;;;5003958;28;20080;-61
2024/01/04 12:46:37;;;;;;;0.52;0.40;;;21.70;42.30;;;;;;4997264;28;20091;-61